sensor_id;sensor_type;location;lat;lon;timestamp;P1;durP1;ratioP1;P2;durP2;ratioP2
75272;SDS011;63869;52.344;16.928;2024-03-23T00:55:37;46.30;;;20.02;;
75272;SDS011;63869;52.344;16.928;2024-03-23T00:58:03;45.80;;;20.02;;
75272;SDS011;63869;52.344;16.928;2024-03-23T01:00:28;49.03;;;21.25;;
75272;SDS011;63869;52.344;16.928;2024-03-23T01:02:54;48.23;;;20.47;;
75272;SDS011;63869;52.344;16.928;2024-03-23T01:05:19;50.07;;;20.87;;
75272;SDS011;63869;52.344;16.928;2024-03-23T01:07:44;48.97;;;20.80;;
75272;SDS011;63869;52.344;16.928;2024-03-23T01:10:09;49.07;;;19.87;;
75272;SDS011;63869;52.344;16.928;2024-03-23T01:12:35;46.03;;;20.17;;
75272;SDS011;63869;52.344;16.928;2024-03-23T01:15:00;49.33;;;20.63;;
75272;SDS011;63869;52.344;16.928;2024-03-23T01:17:25;41.40;;;19.50;;
75272;SDS011;63869;52.344;16.928;2024-03-23T01:19:51;42.03;;;19.67;;
75272;SDS011;63869;52.344;16.928;2024-03-23T01:22:16;45.00;;;20.30;;
75272;SDS011;63869;52.344;16.928;2024-03-23T01:24:41;49.67;;;23.47;;
75272;SDS011;63869;52.344;16.928;2024-03-23T01:27:06;51.83;;;24.70;;
75272;SDS011;63869;52.344;16.928;2024-03-23T01:29:33;56.03;;;25.60;;
75272;SDS011;63869;52.344;16.928;2024-03-23T01:31:59;52.87;;;25.40;;
75272;SDS011;63869;52.344;16.928;2024-03-23T01:34:24;51.30;;;24.00;;
75272;SDS011;63869;52.344;16.928;2024-03-23T01:36:50;53.10;;;22.75;;
75272;SDS011;63869;52.344;16.928;2024-03-23T01:39:15;51.88;;;22.45;;
75272;SDS011;63869;52.344;16.928;2024-03-23T01:41:40;52.90;;;21.93;;
75272;SDS011;63869;52.344;16.928;2024-03-23T01:44:08;52.67;;;23.27;;
75272;SDS011;63869;52.344;16.928;2024-03-23T01:46:34;55.92;;;24.95;;
75272;SDS011;63869;52.344;16.928;2024-03-23T01:49:01;60.42;;;25.42;;
75272;SDS011;63869;52.344;16.928;2024-03-23T01:51:27;58.17;;;23.50;;
75272;SDS011;63869;52.344;16.928;2024-03-23T01:53:53;46.95;;;21.08;;
75272;SDS011;63869;52.344;16.928;2024-03-23T01:56:20;53.23;;;20.80;;
75272;SDS011;63869;52.344;16.928;2024-03-23T01:58:45;48.85;;;20.92;;
75272;SDS011;63869;52.344;16.928;2024-03-23T02:01:11;46.80;;;20.42;;
75272;SDS011;63869;52.344;16.928;2024-03-23T02:03:36;47.20;;;20.43;;
75272;SDS011;63869;52.344;16.928;2024-03-23T02:06:03;48.53;;;20.42;;
75272;SDS011;63869;52.344;16.928;2024-03-23T02:08:31;46.22;;;20.77;;
75272;SDS011;63869;52.344;16.928;2024-03-23T02:10:56;46.80;;;20.52;;
75272;SDS011;63869;52.344;16.928;2024-03-23T02:13:23;44.45;;;20.13;;
75272;SDS011;63869;52.344;16.928;2024-03-23T02:15:49;45.27;;;20.77;;
75272;SDS011;63869;52.344;16.928;2024-03-23T02:18:14;51.47;;;20.98;;
75272;SDS011;63869;52.344;16.928;2024-03-23T02:20:39;49.27;;;20.13;;
75272;SDS011;63869;52.344;16.928;2024-03-23T02:23:05;45.03;;;20.30;;
75272;SDS011;63869;52.344;16.928;2024-03-23T02:25:33;50.90;;;21.88;;
75272;SDS011;63869;52.344;16.928;2024-03-23T02:27:59;51.30;;;21.37;;
75272;SDS011;63869;52.344;16.928;2024-03-23T02:30:25;48.90;;;21.50;;
75272;SDS011;63869;52.344;16.928;2024-03-23T02:32:51;54.50;;;22.15;;
75272;SDS011;63869;52.344;16.928;2024-03-23T02:35:16;52.38;;;22.90;;
75272;SDS011;63869;52.344;16.928;2024-03-23T02:37:41;52.03;;;22.60;;
75272;SDS011;63869;52.344;16.928;2024-03-23T02:40:07;56.90;;;24.90;;
75272;SDS011;63869;52.344;16.928;2024-03-23T02:42:32;55.80;;;23.80;;
75272;SDS011;63869;52.344;16.928;2024-03-23T02:44:58;59.03;;;24.17;;
75272;SDS011;63869;52.344;16.928;2024-03-23T02:47:23;53.88;;;23.50;;
75272;SDS011;63869;52.344;16.928;2024-03-23T02:49:50;50.33;;;22.67;;
75272;SDS011;63869;52.344;16.928;2024-03-23T02:52:15;48.97;;;23.03;;
75272;SDS011;63869;52.344;16.928;2024-03-23T02:54:41;51.87;;;23.33;;
75272;SDS011;63869;52.344;16.928;2024-03-23T02:57:09;51.25;;;23.40;;
75272;SDS011;63869;52.344;16.928;2024-03-23T02:59:35;53.55;;;25.02;;
75272;SDS011;63869;52.344;16.928;2024-03-23T03:02:00;52.37;;;25.47;;
75272;SDS011;63869;52.344;16.928;2024-03-23T03:04:29;54.45;;;25.50;;
75272;SDS011;63869;52.344;16.928;2024-03-23T03:06:55;54.13;;;24.87;;
75272;SDS011;63869;52.344;16.928;2024-03-23T03:09:20;50.97;;;24.00;;
75272;SDS011;63869;52.344;16.928;2024-03-23T03:11:46;57.25;;;24.27;;
75272;SDS011;63869;52.344;16.928;2024-03-23T03:14:11;50.57;;;23.20;;
75272;SDS011;63869;52.344;16.928;2024-03-23T03:16:37;49.50;;;22.63;;
75272;SDS011;63869;52.344;16.928;2024-03-23T03:19:02;49.28;;;22.58;;
75272;SDS011;63869;52.344;16.928;2024-03-23T03:21:28;49.23;;;21.57;;
75272;SDS011;63869;52.344;16.928;2024-03-23T03:23:53;44.65;;;20.80;;
75272;SDS011;63869;52.344;16.928;2024-03-23T03:26:21;45.50;;;21.13;;
75272;SDS011;63869;52.344;16.928;2024-03-23T03:28:46;49.07;;;21.37;;
75272;SDS011;63869;52.344;16.928;2024-03-23T03:31:15;45.60;;;21.07;;
75272;SDS011;63869;52.344;16.928;2024-03-23T03:33:41;43.35;;;20.60;;
75272;SDS011;63869;52.344;16.928;2024-03-23T03:36:07;43.50;;;20.80;;
75272;SDS011;63869;52.344;16.928;2024-03-23T03:38:32;41.83;;;20.50;;
75272;SDS011;63869;52.344;16.928;2024-03-23T03:41:00;45.17;;;20.38;;
75272;SDS011;63869;52.344;16.928;2024-03-23T03:43:25;44.22;;;20.67;;
75272;SDS011;63869;52.344;16.928;2024-03-23T03:45:51;45.37;;;20.43;;
75272;SDS011;63869;52.344;16.928;2024-03-23T03:48:20;45.87;;;20.90;;
75272;SDS011;63869;52.344;16.928;2024-03-23T03:50:45;42.93;;;20.40;;
75272;SDS011;63869;52.344;16.928;2024-03-23T03:53:11;40.53;;;19.08;;
75272;SDS011;63869;52.344;16.928;2024-03-23T03:55:36;41.67;;;20.20;;
75272;SDS011;63869;52.344;16.928;2024-03-23T03:58:01;40.90;;;19.67;;
75272;SDS011;63869;52.344;16.928;2024-03-23T04:00:27;37.37;;;19.70;;
75272;SDS011;63869;52.344;16.928;2024-03-23T04:02:52;37.43;;;19.10;;
75272;SDS011;63869;52.344;16.928;2024-03-23T04:05:17;38.73;;;19.20;;
75272;SDS011;63869;52.344;16.928;2024-03-23T04:07:44;40.22;;;19.85;;
75272;SDS011;63869;52.344;16.928;2024-03-23T04:10:09;41.53;;;20.30;;
75272;SDS011;63869;52.344;16.928;2024-03-23T04:12:35;42.80;;;19.57;;
75272;SDS011;63869;52.344;16.928;2024-03-23T04:15:01;47.08;;;20.15;;
75272;SDS011;63869;52.344;16.928;2024-03-23T04:17:29;44.00;;;19.73;;
75272;SDS011;63869;52.344;16.928;2024-03-23T04:19:57;43.55;;;19.77;;
75272;SDS011;63869;52.344;16.928;2024-03-23T04:22:23;40.60;;;19.25;;
75272;SDS011;63869;52.344;16.928;2024-03-23T04:24:57;41.55;;;18.92;;
75272;SDS011;63869;52.344;16.928;2024-03-23T04:27:23;37.63;;;18.27;;
75272;SDS011;63869;52.344;16.928;2024-03-23T04:29:51;35.70;;;18.07;;
75272;SDS011;63869;52.344;16.928;2024-03-23T04:32:20;37.35;;;18.13;;
75272;SDS011;63869;52.344;16.928;2024-03-23T04:34:45;38.03;;;18.03;;
75272;SDS011;63869;52.344;16.928;2024-03-23T04:37:10;37.40;;;17.77;;
75272;SDS011;63869;52.344;16.928;2024-03-23T04:39:36;33.75;;;16.73;;
75272;SDS011;63869;52.344;16.928;2024-03-23T04:42:02;38.90;;;17.02;;
75272;SDS011;63869;52.344;16.928;2024-03-23T04:44:28;35.38;;;17.02;;
75272;SDS011;63869;52.344;16.928;2024-03-23T04:46:53;36.33;;;17.42;;
75272;SDS011;63869;52.344;16.928;2024-03-23T04:49:19;35.00;;;16.80;;
75272;SDS011;63869;52.344;16.928;2024-03-23T04:51:44;14.47;;;6.13;;
75272;SDS011;63869;52.344;16.928;2024-03-23T04:54:14;10.90;;;3.90;;
75272;SDS011;63869;52.344;16.928;2024-03-23T04:56:39;12.05;;;3.58;;
75272;SDS011;63869;52.344;16.928;2024-03-23T04:59:05;11.30;;;3.43;;
75272;SDS011;63869;52.344;16.928;2024-03-23T05:01:30;9.23;;;3.13;;
75272;SDS011;63869;52.344;16.928;2024-03-23T05:03:56;13.05;;;3.58;;
75272;SDS011;63869;52.344;16.928;2024-03-23T05:06:22;13.18;;;3.65;;
75272;SDS011;63869;52.344;16.928;2024-03-23T05:08:48;9.32;;;3.83;;
75272;SDS011;63869;52.344;16.928;2024-03-23T05:11:13;11.40;;;4.30;;
75272;SDS011;63869;52.344;16.928;2024-03-23T05:13:39;10.57;;;4.50;;
75272;SDS011;63869;52.344;16.928;2024-03-23T05:16:04;11.10;;;4.80;;
75272;SDS011;63869;52.344;16.928;2024-03-23T05:18:30;14.70;;;5.10;;
75272;SDS011;63869;52.344;16.928;2024-03-23T05:20:56;12.90;;;4.63;;
75272;SDS011;63869;52.344;16.928;2024-03-23T05:23:22;11.13;;;4.40;;
75272;SDS011;63869;52.344;16.928;2024-03-23T05:25:48;10.57;;;3.70;;
75272;SDS011;63869;52.344;16.928;2024-03-23T05:28:13;12.15;;;4.10;;
75272;SDS011;63869;52.344;16.928;2024-03-23T05:30:38;10.73;;;4.20;;
75272;SDS011;63869;52.344;16.928;2024-03-23T05:33:05;10.87;;;3.87;;
75272;SDS011;63869;52.344;16.928;2024-03-23T05:35:30;13.10;;;4.00;;
75272;SDS011;63869;52.344;16.928;2024-03-23T05:37:55;12.02;;;4.10;;
75272;SDS011;63869;52.344;16.928;2024-03-23T05:40:21;13.80;;;4.33;;
75272;SDS011;63869;52.344;16.928;2024-03-23T05:42:46;13.68;;;3.80;;
75272;SDS011;63869;52.344;16.928;2024-03-23T05:45:11;17.57;;;4.23;;
75272;SDS011;63869;52.344;16.928;2024-03-23T05:47:37;16.10;;;4.70;;
75272;SDS011;63869;52.344;16.928;2024-03-23T05:50:03;14.67;;;4.10;;
75272;SDS011;63869;52.344;16.928;2024-03-23T05:52:28;16.40;;;4.47;;
75272;SDS011;63869;52.344;16.928;2024-03-23T05:54:54;16.77;;;4.70;;
75272;SDS011;63869;52.344;16.928;2024-03-23T05:57:20;18.80;;;5.30;;
75272;SDS011;63869;52.344;16.928;2024-03-23T05:59:45;17.47;;;5.10;;
75272;SDS011;63869;52.344;16.928;2024-03-23T06:02:11;16.17;;;5.10;;
75272;SDS011;63869;52.344;16.928;2024-03-23T06:04:37;17.58;;;5.07;;
75272;SDS011;63869;52.344;16.928;2024-03-23T06:07:03;12.90;;;5.10;;
75272;SDS011;63869;52.344;16.928;2024-03-23T06:09:31;16.80;;;5.15;;
75272;SDS011;63869;52.344;16.928;2024-03-23T06:11:56;15.00;;;5.50;;
75272;SDS011;63869;52.344;16.928;2024-03-23T06:14:21;15.57;;;5.45;;
75272;SDS011;63869;52.344;16.928;2024-03-23T06:16:47;14.90;;;5.40;;
75272;SDS011;63869;52.344;16.928;2024-03-23T06:19:12;15.90;;;6.43;;
75272;SDS011;63869;52.344;16.928;2024-03-23T06:21:42;14.13;;;6.20;;
75272;SDS011;63869;52.344;16.928;2024-03-23T06:24:09;16.53;;;6.43;;
75272;SDS011;63869;52.344;16.928;2024-03-23T06:26:34;15.47;;;5.57;;
75272;SDS011;63869;52.344;16.928;2024-03-23T06:28:59;14.40;;;5.50;;
75272;SDS011;63869;52.344;16.928;2024-03-23T06:31:25;11.57;;;5.05;;
75272;SDS011;63869;52.344;16.928;2024-03-23T06:33:51;14.63;;;5.77;;
75272;SDS011;63869;52.344;16.928;2024-03-23T06:36:16;14.20;;;5.57;;
75272;SDS011;63869;52.344;16.928;2024-03-23T06:38:42;13.77;;;5.72;;
75272;SDS011;63869;52.344;16.928;2024-03-23T06:41:07;14.70;;;5.47;;
75272;SDS011;63869;52.344;16.928;2024-03-23T06:43:33;18.05;;;5.68;;
75272;SDS011;63869;52.344;16.928;2024-03-23T06:45:58;13.53;;;5.50;;
75272;SDS011;63869;52.344;16.928;2024-03-23T06:48:24;14.17;;;5.47;;
75272;SDS011;63869;52.344;16.928;2024-03-23T06:50:49;19.60;;;4.87;;
75272;SDS011;63869;52.344;16.928;2024-03-23T06:53:15;19.55;;;4.78;;
75272;SDS011;63869;52.344;16.928;2024-03-23T06:55:40;20.10;;;4.50;;
75272;SDS011;63869;52.344;16.928;2024-03-23T06:58:09;17.75;;;4.20;;
75272;SDS011;63869;52.344;16.928;2024-03-23T07:00:37;19.50;;;4.75;;
75272;SDS011;63869;52.344;16.928;2024-03-23T07:03:02;19.83;;;4.57;;
75272;SDS011;63869;52.344;16.928;2024-03-23T07:05:30;16.73;;;4.30;;
75272;SDS011;63869;52.344;16.928;2024-03-23T07:07:55;22.08;;;4.80;;
75272;SDS011;63869;52.344;16.928;2024-03-23T07:10:20;21.63;;;4.93;;
75272;SDS011;63869;52.344;16.928;2024-03-23T07:12:46;17.87;;;5.03;;
75272;SDS011;63869;52.344;16.928;2024-03-23T07:15:11;23.00;;;5.10;;
75272;SDS011;63869;52.344;16.928;2024-03-23T07:17:36;17.90;;;4.90;;
75272;SDS011;63869;52.344;16.928;2024-03-23T07:20:02;23.02;;;5.60;;
75272;SDS011;63869;52.344;16.928;2024-03-23T07:22:32;19.65;;;5.32;;
75272;SDS011;63869;52.344;16.928;2024-03-23T07:24:59;24.53;;;5.23;;
75272;SDS011;63869;52.344;16.928;2024-03-23T07:27:26;18.77;;;5.10;;
75272;SDS011;63869;52.344;16.928;2024-03-23T07:29:51;18.98;;;5.43;;
75272;SDS011;63869;52.344;16.928;2024-03-23T07:32:16;20.57;;;5.93;;
75272;SDS011;63869;52.344;16.928;2024-03-23T07:34:42;17.50;;;5.60;;
75272;SDS011;63869;52.344;16.928;2024-03-23T07:37:09;21.92;;;5.88;;
75272;SDS011;63869;52.344;16.928;2024-03-23T07:39:34;27.48;;;6.22;;
75272;SDS011;63869;52.344;16.928;2024-03-23T07:42:00;23.13;;;6.13;;
75272;SDS011;63869;52.344;16.928;2024-03-23T07:44:25;23.80;;;6.07;;
75272;SDS011;63869;52.344;16.928;2024-03-23T07:46:50;13.38;;;4.32;;
75272;SDS011;63869;52.344;16.928;2024-03-23T07:49:17;16.25;;;3.92;;
75272;SDS011;63869;52.344;16.928;2024-03-23T07:51:43;14.25;;;4.57;;
75272;SDS011;63869;52.344;16.928;2024-03-23T07:54:09;20.90;;;5.68;;
75272;SDS011;63869;52.344;16.928;2024-03-23T07:56:35;16.15;;;5.60;;
75272;SDS011;63869;52.344;16.928;2024-03-23T07:59:00;19.55;;;5.93;;
75272;SDS011;63869;52.344;16.928;2024-03-23T08:01:25;15.82;;;5.68;;
75272;SDS011;63869;52.344;16.928;2024-03-23T08:03:51;16.92;;;5.50;;
75272;SDS011;63869;52.344;16.928;2024-03-23T08:06:17;19.15;;;4.97;;
75272;SDS011;63869;52.344;16.928;2024-03-23T08:08:45;19.63;;;5.30;;
75272;SDS011;63869;52.344;16.928;2024-03-23T08:11:12;19.58;;;5.03;;
75272;SDS011;63869;52.344;16.928;2024-03-23T08:13:38;17.90;;;4.90;;
75272;SDS011;63869;52.344;16.928;2024-03-23T08:16:05;15.75;;;5.35;;
75272;SDS011;63869;52.344;16.928;2024-03-23T08:18:30;22.63;;;5.68;;
75272;SDS011;63869;52.344;16.928;2024-03-23T08:21:03;15.10;;;4.65;;
75272;SDS011;63869;52.344;16.928;2024-03-23T08:23:29;25.20;;;5.57;;
75272;SDS011;63869;52.344;16.928;2024-03-23T08:25:59;17.25;;;5.47;;
75272;SDS011;63869;52.344;16.928;2024-03-23T08:28:25;17.33;;;6.10;;
75272;SDS011;63869;52.344;16.928;2024-03-23T10:12:50;17.13;;;6.35;;
75272;SDS011;63869;52.344;16.928;2024-03-23T10:20:12;13.95;;;6.00;;
75272;SDS011;63869;52.344;16.928;2024-03-23T10:22:38;17.10;;;6.25;;
75272;SDS011;63869;52.344;16.928;2024-03-23T10:25:08;15.45;;;6.57;;
75272;SDS011;63869;52.344;16.928;2024-03-23T10:27:34;17.13;;;6.13;;
75272;SDS011;63869;52.344;16.928;2024-03-23T10:30:07;10.27;;;5.22;;
75272;SDS011;63869;52.344;16.928;2024-03-23T10:32:34;16.83;;;6.00;;
75272;SDS011;63869;52.344;16.928;2024-03-23T10:35:16;13.95;;;5.53;;
75272;SDS011;63869;52.344;16.928;2024-03-23T10:37:43;12.55;;;5.10;;
75272;SDS011;63869;52.344;16.928;2024-03-23T10:40:09;16.02;;;6.47;;
75272;SDS011;63869;52.344;16.928;2024-03-23T10:42:37;14.05;;;6.25;;
75272;SDS011;63869;52.344;16.928;2024-03-23T10:45:06;11.77;;;5.53;;
75272;SDS011;63869;52.344;16.928;2024-03-23T10:47:35;13.88;;;6.13;;
75272;SDS011;63869;52.344;16.928;2024-03-23T10:50:04;12.32;;;5.47;;
75272;SDS011;63869;52.344;16.928;2024-03-23T10:52:33;13.07;;;5.65;;
75272;SDS011;63869;52.344;16.928;2024-03-23T10:54:58;11.45;;;5.13;;
75272;SDS011;63869;52.344;16.928;2024-03-23T10:57:30;14.25;;;5.25;;
75272;SDS011;63869;52.344;16.928;2024-03-23T11:00:02;10.40;;;5.13;;
75272;SDS011;63869;52.344;16.928;2024-03-23T11:02:28;10.43;;;5.28;;
75272;SDS011;63869;52.344;16.928;2024-03-23T11:04:54;11.10;;;4.55;;
75272;SDS011;63869;52.344;16.928;2024-03-23T11:09:48;11.65;;;4.22;;
75272;SDS011;63869;52.344;16.928;2024-03-23T11:15:06;10.32;;;4.60;;
75272;SDS011;63869;52.344;16.928;2024-03-23T11:17:36;16.17;;;5.57;;
75272;SDS011;63869;52.344;16.928;2024-03-23T11:20:02;13.35;;;5.70;;
75272;SDS011;63869;52.344;16.928;2024-03-23T11:22:39;10.90;;;5.00;;
75272;SDS011;63869;52.344;16.928;2024-03-23T11:25:19;11.30;;;5.22;;
75272;SDS011;63869;52.344;16.928;2024-03-23T12:46:33;9.48;;;4.25;;
75272;SDS011;63869;52.344;16.928;2024-03-23T12:48:59;9.68;;;4.35;;
75272;SDS011;63869;52.344;16.928;2024-03-23T12:51:24;11.18;;;4.75;;
75272;SDS011;63869;52.344;16.928;2024-03-23T12:53:50;8.43;;;4.25;;
75272;SDS011;63869;52.344;16.928;2024-03-23T12:56:15;11.40;;;5.22;;
75272;SDS011;63869;52.344;16.928;2024-03-23T12:58:40;11.57;;;5.47;;
75272;SDS011;63869;52.344;16.928;2024-03-23T13:01:06;11.18;;;5.03;;
75272;SDS011;63869;52.344;16.928;2024-03-23T13:03:31;13.55;;;5.32;;
75272;SDS011;63869;52.344;16.928;2024-03-23T13:05:57;8.85;;;4.38;;
75272;SDS011;63869;52.344;16.928;2024-03-23T13:08:22;9.35;;;4.72;;
75272;SDS011;63869;52.344;16.928;2024-03-23T13:10:51;25.83;;;14.27;;
75272;SDS011;63869;52.344;16.928;2024-03-23T13:13:16;11.23;;;5.55;;
75272;SDS011;63869;52.344;16.928;2024-03-23T13:15:42;17.23;;;5.10;;
75272;SDS011;63869;52.344;16.928;2024-03-23T13:18:07;14.10;;;5.77;;
75272;SDS011;63869;52.344;16.928;2024-03-23T13:20:35;9.57;;;5.27;;
75272;SDS011;63869;52.344;16.928;2024-03-23T13:23:00;8.00;;;4.20;;
75272;SDS011;63869;52.344;16.928;2024-03-23T13:25:26;9.07;;;4.80;;
75272;SDS011;63869;52.344;16.928;2024-03-23T13:27:51;9.57;;;5.70;;
75272;SDS011;63869;52.344;16.928;2024-03-23T13:30:16;9.17;;;4.50;;
75272;SDS011;63869;52.344;16.928;2024-03-23T13:32:42;7.10;;;3.60;;
75272;SDS011;63869;52.344;16.928;2024-03-23T13:35:07;8.80;;;3.53;;
75272;SDS011;63869;52.344;16.928;2024-03-23T13:37:32;9.03;;;4.17;;
75272;SDS011;63869;52.344;16.928;2024-03-23T13:39:58;6.43;;;3.70;;
75272;SDS011;63869;52.344;16.928;2024-03-23T13:42:24;5.73;;;3.20;;
75272;SDS011;63869;52.344;16.928;2024-03-23T13:44:51;6.82;;;3.47;;
75272;SDS011;63869;52.344;16.928;2024-03-23T13:47:16;8.97;;;3.73;;
75272;SDS011;63869;52.344;16.928;2024-03-23T13:49:41;6.43;;;3.40;;
75272;SDS011;63869;52.344;16.928;2024-03-23T13:52:06;4.93;;;2.80;;
75272;SDS011;63869;52.344;16.928;2024-03-23T13:54:32;4.90;;;2.30;;
75272;SDS011;63869;52.344;16.928;2024-03-23T13:56:58;4.37;;;2.17;;
75272;SDS011;63869;52.344;16.928;2024-03-23T13:59:23;4.90;;;2.37;;
75272;SDS011;63869;52.344;16.928;2024-03-23T14:01:49;4.68;;;2.15;;
75272;SDS011;63869;52.344;16.928;2024-03-23T14:04:15;4.60;;;2.55;;
75272;SDS011;63869;52.344;16.928;2024-03-23T14:06:47;4.72;;;2.40;;
75272;SDS011;63869;52.344;16.928;2024-03-23T14:09:13;5.73;;;2.60;;
75272;SDS011;63869;52.344;16.928;2024-03-23T14:11:40;3.95;;;2.50;;
75272;SDS011;63869;52.344;16.928;2024-03-23T14:14:08;4.72;;;2.10;;
75272;SDS011;63869;52.344;16.928;2024-03-23T14:16:33;4.90;;;2.40;;
75272;SDS011;63869;52.344;16.928;2024-03-23T14:18:59;14.20;;;6.75;;
75272;SDS011;63869;52.344;16.928;2024-03-23T14:21:24;5.93;;;2.58;;
75272;SDS011;63869;52.344;16.928;2024-03-23T14:23:50;5.27;;;2.73;;
75272;SDS011;63869;52.344;16.928;2024-03-23T14:26:15;31.53;;;16.57;;
75272;SDS011;63869;52.344;16.928;2024-03-23T14:28:41;23.37;;;12.13;;
75272;SDS011;63869;52.344;16.928;2024-03-23T14:31:06;8.20;;;4.50;;
75272;SDS011;63869;52.344;16.928;2024-03-23T14:33:35;4.05;;;2.15;;
75272;SDS011;63869;52.344;16.928;2024-03-23T14:36:02;4.00;;;2.03;;
75272;SDS011;63869;52.344;16.928;2024-03-23T14:38:28;4.65;;;2.30;;
75272;SDS011;63869;52.344;16.928;2024-03-23T14:40:57;5.97;;;2.30;;
75272;SDS011;63869;52.344;16.928;2024-03-23T14:43:24;5.18;;;2.90;;
75272;SDS011;63869;52.344;16.928;2024-03-23T14:48:33;5.72;;;3.10;;
75272;SDS011;63869;52.344;16.928;2024-03-23T14:51:00;6.38;;;3.88;;
75272;SDS011;63869;52.344;16.928;2024-03-23T14:53:26;8.35;;;4.90;;
75272;SDS011;63869;52.344;16.928;2024-03-23T14:55:54;7.55;;;4.68;;
75272;SDS011;63869;52.344;16.928;2024-03-23T14:58:20;7.67;;;4.70;;
75272;SDS011;63869;52.344;16.928;2024-03-23T15:00:46;8.33;;;4.23;;
75272;SDS011;63869;52.344;16.928;2024-03-23T15:03:11;7.03;;;4.10;;
75272;SDS011;63869;52.344;16.928;2024-03-23T15:05:36;7.90;;;4.20;;
75272;SDS011;63869;52.344;16.928;2024-03-23T15:08:02;9.63;;;4.70;;
75272;SDS011;63869;52.344;16.928;2024-03-23T15:10:28;8.50;;;5.15;;
75272;SDS011;63869;52.344;16.928;2024-03-23T15:12:53;12.03;;;6.63;;
75272;SDS011;63869;52.344;16.928;2024-03-23T15:15:18;9.20;;;6.20;;
75272;SDS011;63869;52.344;16.928;2024-03-23T15:17:44;11.05;;;5.10;;
75272;SDS011;63869;52.344;16.928;2024-03-23T15:20:10;13.00;;;5.57;;
75272;SDS011;63869;52.344;16.928;2024-03-23T15:22:39;10.13;;;5.33;;
75272;SDS011;63869;52.344;16.928;2024-03-23T15:25:05;8.37;;;4.47;;
75272;SDS011;63869;52.344;16.928;2024-03-23T15:27:32;8.83;;;5.23;;
75272;SDS011;63869;52.344;16.928;2024-03-23T15:29:57;10.07;;;5.30;;
75272;SDS011;63869;52.344;16.928;2024-03-23T15:32:22;7.33;;;4.10;;
75272;SDS011;63869;52.344;16.928;2024-03-23T15:34:48;11.27;;;4.13;;
75272;SDS011;63869;52.344;16.928;2024-03-23T15:37:13;7.83;;;3.90;;
75272;SDS011;63869;52.344;16.928;2024-03-23T15:39:39;7.38;;;4.13;;
75272;SDS011;63869;52.344;16.928;2024-03-23T15:42:06;11.82;;;5.85;;
75272;SDS011;63869;52.344;16.928;2024-03-23T15:44:32;10.02;;;5.20;;
75272;SDS011;63869;52.344;16.928;2024-03-23T15:46:57;11.57;;;5.70;;
75272;SDS011;63869;52.344;16.928;2024-03-23T15:49:23;14.27;;;6.77;;
75272;SDS011;63869;52.344;16.928;2024-03-23T15:51:48;9.77;;;5.07;;
75272;SDS011;63869;52.344;16.928;2024-03-23T15:54:13;11.43;;;5.80;;
75272;SDS011;63869;52.344;16.928;2024-03-23T15:56:39;9.07;;;5.07;;
75272;SDS011;63869;52.344;16.928;2024-03-23T15:59:04;7.70;;;4.33;;
75272;SDS011;63869;52.344;16.928;2024-03-23T16:01:32;11.40;;;5.57;;
75272;SDS011;63869;52.344;16.928;2024-03-23T16:03:59;13.40;;;6.43;;
75272;SDS011;63869;52.344;16.928;2024-03-23T16:06:27;13.32;;;6.70;;
75272;SDS011;63869;52.344;16.928;2024-03-23T16:08:52;9.33;;;5.17;;
75272;SDS011;63869;52.344;16.928;2024-03-23T16:11:18;9.33;;;4.97;;
75272;SDS011;63869;52.344;16.928;2024-03-23T16:13:43;9.90;;;4.93;;
75272;SDS011;63869;52.344;16.928;2024-03-23T16:16:09;10.90;;;6.18;;
75272;SDS011;63869;52.344;16.928;2024-03-23T16:18:35;11.23;;;5.43;;
75272;SDS011;63869;52.344;16.928;2024-03-23T16:21:02;10.68;;;5.32;;
75272;SDS011;63869;52.344;16.928;2024-03-23T16:23:34;7.10;;;3.70;;
75272;SDS011;63869;52.344;16.928;2024-03-23T16:26:02;7.82;;;4.28;;
75272;SDS011;63869;52.344;16.928;2024-03-23T16:28:28;7.17;;;4.17;;
75272;SDS011;63869;52.344;16.928;2024-03-23T16:33:31;8.00;;;4.68;;
75272;SDS011;63869;52.344;16.928;2024-03-23T16:35:57;9.57;;;5.10;;
75272;SDS011;63869;52.344;16.928;2024-03-23T16:38:24;6.68;;;3.80;;
75272;SDS011;63869;52.344;16.928;2024-03-23T16:40:53;6.18;;;3.50;;
75272;SDS011;63869;52.344;16.928;2024-03-23T16:43:19;8.15;;;4.50;;
75272;SDS011;63869;52.344;16.928;2024-03-23T16:45:50;6.80;;;2.97;;
75272;SDS011;63869;52.344;16.928;2024-03-23T16:48:17;6.78;;;3.90;;
75272;SDS011;63869;52.344;16.928;2024-03-23T16:50:42;8.47;;;4.30;;
75272;SDS011;63869;52.344;16.928;2024-03-23T16:53:08;7.32;;;4.00;;
75272;SDS011;63869;52.344;16.928;2024-03-23T16:55:34;6.53;;;3.83;;
75272;SDS011;63869;52.344;16.928;2024-03-23T16:58:00;8.80;;;4.38;;
75272;SDS011;63869;52.344;16.928;2024-03-23T17:00:25;10.23;;;5.53;;
75272;SDS011;63869;52.344;16.928;2024-03-23T17:02:51;10.93;;;6.43;;
75272;SDS011;63869;52.344;16.928;2024-03-23T17:05:16;11.37;;;6.77;;
75272;SDS011;63869;52.344;16.928;2024-03-23T17:07:42;9.88;;;5.72;;
75272;SDS011;63869;52.344;16.928;2024-03-23T17:10:09;10.07;;;5.47;;
75272;SDS011;63869;52.344;16.928;2024-03-23T17:12:34;9.93;;;5.83;;
75272;SDS011;63869;52.344;16.928;2024-03-23T17:15:03;11.48;;;6.60;;
75272;SDS011;63869;52.344;16.928;2024-03-23T17:17:31;11.02;;;6.30;;
75272;SDS011;63869;52.344;16.928;2024-03-23T17:19:59;10.52;;;6.00;;
75272;SDS011;63869;52.344;16.928;2024-03-23T17:22:25;10.45;;;6.30;;
75272;SDS011;63869;52.344;16.928;2024-03-23T17:24:54;10.82;;;5.90;;
75272;SDS011;63869;52.344;16.928;2024-03-23T17:27:19;12.02;;;6.10;;
75272;SDS011;63869;52.344;16.928;2024-03-23T17:29:44;9.10;;;5.00;;
75272;SDS011;63869;52.344;16.928;2024-03-23T17:32:12;10.88;;;6.05;;
75272;SDS011;63869;52.344;16.928;2024-03-23T17:34:38;9.53;;;5.87;;
75272;SDS011;63869;52.344;16.928;2024-03-23T17:37:03;15.00;;;7.57;;
75272;SDS011;63869;52.344;16.928;2024-03-23T17:39:31;15.45;;;8.25;;
75272;SDS011;63869;52.344;16.928;2024-03-23T17:41:57;14.67;;;7.50;;
75272;SDS011;63869;52.344;16.928;2024-03-23T17:44:23;14.65;;;7.90;;
75272;SDS011;63869;52.344;16.928;2024-03-23T17:46:48;20.43;;;10.33;;
75272;SDS011;63869;52.344;16.928;2024-03-23T17:49:13;19.70;;;10.67;;
75272;SDS011;63869;52.344;16.928;2024-03-23T17:51:40;20.48;;;10.25;;
75272;SDS011;63869;52.344;16.928;2024-03-23T17:54:06;17.97;;;8.80;;
75272;SDS011;63869;52.344;16.928;2024-03-23T17:56:31;14.87;;;8.90;;
75272;SDS011;63869;52.344;16.928;2024-03-23T17:58:57;13.93;;;7.40;;
75272;SDS011;63869;52.344;16.928;2024-03-23T18:01:22;15.83;;;7.80;;
75272;SDS011;63869;52.344;16.928;2024-03-23T18:03:54;16.90;;;9.55;;
75272;SDS011;63869;52.344;16.928;2024-03-23T18:06:19;14.85;;;8.32;;
75272;SDS011;63869;52.344;16.928;2024-03-23T18:08:45;13.50;;;7.65;;
75272;SDS011;63869;52.344;16.928;2024-03-23T18:11:11;15.27;;;7.82;;
75272;SDS011;63869;52.344;16.928;2024-03-23T18:13:36;15.77;;;8.00;;
75272;SDS011;63869;52.344;16.928;2024-03-23T18:16:02;15.63;;;8.43;;
75272;SDS011;63869;52.344;16.928;2024-03-23T18:18:28;14.13;;;7.57;;
75272;SDS011;63869;52.344;16.928;2024-03-23T18:20:54;15.80;;;8.73;;
75272;SDS011;63869;52.344;16.928;2024-03-23T18:23:19;18.63;;;8.90;;
75272;SDS011;63869;52.344;16.928;2024-03-23T18:25:54;16.80;;;8.50;;